createdAt,value
2023-04-20T00:01:29.035Z,86.52
2023-04-20T00:03:57.144Z,86.62
2023-04-20T00:06:29.608Z,86.96
2023-04-20T00:08:57.348Z,86.87
2023-04-20T00:11:24.434Z,87.16
2023-04-20T00:13:51.652Z,87.18
2023-04-20T00:16:18.964Z,87.40
2023-04-20T00:18:47.184Z,87.65
2023-04-20T00:21:14.312Z,87.70
2023-04-20T00:23:42.553Z,87.91
2023-04-20T00:26:09.349Z,87.77
2023-04-20T00:28:37.828Z,87.72
2023-04-20T00:31:06.325Z,87.72
2023-04-20T00:33:33.939Z,87.92
2023-04-20T00:36:01.094Z,87.69
2023-04-20T00:38:28.667Z,87.49
2023-04-20T00:40:56.040Z,87.73
2023-04-20T00:43:24.793Z,87.40
2023-04-20T00:45:52.436Z,87.77
2023-04-20T00:48:20.724Z,87.88
2023-04-20T00:50:50.058Z,88.25
2023-04-20T00:53:19.119Z,88.13
2023-04-20T00:55:46.039Z,88.47
2023-04-20T00:58:13.853Z,88.88
2023-04-20T01:00:40.773Z,88.85
2023-04-20T01:03:09.014Z,88.83
2023-04-20T01:05:36.328Z,88.72
2023-04-20T01:08:03.870Z,88.91
2023-04-20T01:10:30.703Z,89.14
2023-04-20T01:12:58.657Z,89.19
2023-04-20T01:15:26.293Z,89.31
2023-04-20T01:17:54.257Z,89.41
2023-04-20T01:20:23.922Z,89.52
2023-04-20T01:22:53.706Z,89.31
2023-04-20T01:25:21.500Z,89.36
2023-04-20T01:27:49.291Z,89.52
2023-04-20T01:30:17.295Z,89.35
2023-04-20T01:32:45.451Z,89.60
2023-04-20T01:35:12.598Z,89.62
2023-04-20T01:37:40.847Z,89.38
2023-04-20T01:40:12.629Z,89.32
2023-04-20T01:42:40.602Z,88.91
2023-04-20T01:45:08.929Z,88.98
2023-04-20T01:47:37.100Z,89.27
2023-04-20T01:50:04.253Z,89.08
2023-04-20T01:52:31.962Z,89.00
2023-04-20T01:54:59.378Z,89.33
2023-04-20T01:57:27.171Z,89.40
2023-04-20T01:59:54.263Z,89.60
2023-04-20T02:02:21.911Z,89.29
2023-04-20T02:04:48.978Z,89.11
2023-04-20T02:07:16.732Z,89.10
2023-04-20T02:09:43.767Z,89.08
2023-04-20T02:12:11.014Z,89.30
2023-04-20T02:14:39.675Z,89.27
2023-04-20T02:17:10.587Z,89.47
2023-04-20T02:19:38.160Z,89.54
2023-04-20T02:22:05.659Z,89.16
2023-04-20T02:24:32.996Z,89.33
2023-04-20T02:27:01.215Z,89.33
2023-04-20T02:29:28.731Z,89.35
2023-04-20T02:31:56.149Z,89.53
2023-04-20T02:34:23.559Z,89.49
2023-04-20T02:36:50.882Z,89.41
2023-04-20T02:39:18.042Z,89.40
2023-04-20T02:41:45.884Z,89.38
2023-04-20T02:44:13.061Z,89.39
2023-04-20T02:46:41.138Z,89.74
2023-04-20T02:49:08.398Z,89.96
2023-04-20T02:51:40.863Z,90.16
2023-04-20T02:54:08.354Z,89.69
2023-04-20T02:56:36.070Z,90.01
2023-04-20T02:59:07.584Z,89.72
2023-04-20T03:01:43.979Z,90.20
2023-04-20T03:04:15.569Z,90.33
2023-04-20T03:06:51.061Z,90.49
2023-04-20T03:09:23.830Z,90.51
2023-04-20T03:12:22.475Z,90.23
2023-04-20T03:15:10.297Z,90.61
2023-04-20T03:17:57.042Z,90.75
2023-04-20T03:20:24.943Z,90.27
2023-04-20T03:22:52.194Z,90.40
2023-04-20T03:25:22.445Z,90.25
2023-04-20T03:27:59.751Z,90.45
2023-04-20T03:30:27.220Z,90.57
2023-04-20T03:33:01.115Z,90.37
2023-04-20T03:35:28.494Z,90.30
2023-04-20T03:37:55.709Z,90.23
2023-04-20T03:40:23.086Z,90.39
2023-04-20T03:42:50.611Z,90.38
2023-04-20T03:45:17.609Z,90.35
2023-04-20T03:47:45.040Z,90.81
2023-04-20T03:50:11.896Z,90.83
2023-04-20T03:52:41.069Z,90.94
2023-04-20T03:55:10.045Z,91.36
2023-04-20T03:57:41.223Z,91.20
2023-04-20T04:00:10.932Z,91.12
2023-04-20T04:02:47.358Z,91.26
2023-04-20T04:05:21.289Z,91.27
2023-04-20T04:07:50.515Z,91.48
2023-04-20T04:10:19.141Z,91.73
2023-04-20T04:12:46.690Z,91.58
2023-04-20T04:15:14.282Z,91.67
2023-04-20T04:17:50.275Z,91.73
2023-04-20T04:20:17.444Z,91.26
2023-04-20T04:22:45.221Z,91.49
2023-04-20T04:25:34.073Z,91.03
2023-04-20T04:28:01.690Z,90.56
2023-04-20T04:30:30.991Z,90.42
2023-04-20T04:32:59.972Z,89.99
2023-04-20T04:35:27.812Z,89.69
2023-04-20T04:37:56.047Z,89.08
2023-04-20T04:40:24.006Z,89.06
2023-04-20T04:42:53.855Z,89.06
2023-04-20T04:45:21.133Z,88.41
2023-04-20T04:47:48.675Z,88.54
2023-04-20T04:50:15.914Z,88.24
2023-04-20T04:52:43.316Z,87.50
2023-04-20T04:55:10.616Z,87.62
2023-04-20T04:57:38.712Z,87.43
2023-04-20T05:00:09.808Z,87.49
2023-04-20T05:02:37.547Z,87.92
2023-04-20T05:05:06.498Z,88.16
2023-04-20T05:07:34.721Z,87.85
2023-04-20T05:10:02.225Z,87.77
2023-04-20T05:12:29.406Z,87.46
2023-04-20T05:14:56.302Z,87.84
2023-04-20T05:17:23.541Z,87.80
2023-04-20T05:19:50.685Z,86.77
2023-04-20T05:22:18.008Z,86.91
2023-04-20T05:24:45.573Z,86.77
2023-04-20T05:27:12.846Z,86.11
2023-04-20T05:29:40.080Z,85.64
2023-04-20T05:32:07.650Z,85.66
2023-04-20T05:34:35.077Z,85.23
2023-04-20T05:37:04.573Z,84.87
2023-04-20T05:39:31.664Z,83.93
2023-04-20T05:41:58.838Z,83.43
2023-04-20T05:44:27.430Z,83.63
2023-04-20T05:46:54.759Z,83.91
2023-04-20T05:49:22.300Z,83.88
2023-04-20T05:51:49.496Z,84.42
2023-04-20T05:54:17.478Z,84.36
2023-04-20T05:56:45.569Z,84.64
2023-04-20T05:59:12.443Z,84.51
2023-04-20T06:01:40.084Z,83.97
2023-04-20T06:04:07.273Z,83.19
2023-04-20T06:06:35.049Z,81.80
2023-04-20T06:09:02.249Z,81.78
2023-04-20T06:11:29.720Z,80.78
2023-04-20T06:13:56.891Z,80.12
2023-04-20T06:16:24.618Z,79.42
2023-04-20T06:18:51.685Z,79.15
2023-04-20T06:21:20.199Z,78.66
2023-04-20T06:23:47.223Z,78.26
2023-04-20T06:26:14.707Z,78.01
2023-04-20T06:28:41.809Z,77.50
2023-04-20T06:31:09.514Z,76.29
2023-04-20T06:33:36.854Z,76.34
2023-04-20T06:36:07.171Z,75.43
2023-04-20T06:38:34.115Z,73.56
2023-04-20T06:41:04.352Z,73.30
2023-04-20T06:43:31.373Z,73.45
2023-04-20T06:45:59.001Z,73.34
2023-04-20T06:48:32.233Z,70.38
2023-04-20T06:51:01.888Z,69.91
2023-04-20T06:53:29.224Z,69.97
2023-04-20T06:55:57.084Z,69.27
2023-04-20T06:58:24.165Z,69.52
2023-04-20T07:00:51.656Z,68.84
2023-04-20T07:03:19.545Z,68.33
2023-04-20T07:05:46.952Z,67.47
2023-04-20T07:08:16.222Z,67.19
2023-04-20T07:10:43.815Z,67.31
2023-04-20T07:13:11.285Z,67.33
2023-04-20T07:15:38.591Z,66.97
2023-04-20T07:18:06.465Z,65.98
2023-04-20T07:20:33.809Z,66.49
2023-04-20T07:23:01.062Z,66.07
2023-04-20T07:25:28.552Z,66.41
2023-04-20T07:27:56.020Z,66.23
2023-04-20T07:30:23.429Z,65.81
2023-04-20T07:32:51.032Z,65.48
2023-04-20T07:35:18.369Z,63.92
2023-04-20T07:37:45.638Z,63.19
2023-04-20T07:40:13.526Z,62.41
2023-04-20T07:42:41.266Z,61.88
2023-04-20T07:45:09.517Z,61.54
2023-04-20T07:47:37.534Z,60.53
2023-04-20T07:50:06.749Z,59.10
2023-04-20T07:52:34.500Z,59.17
2023-04-20T07:55:01.528Z,58.13
2023-04-20T07:57:29.409Z,57.66
2023-04-20T07:59:56.723Z,56.58
2023-04-20T08:02:24.498Z,57.13
2023-04-20T08:04:51.840Z,56.87
2023-04-20T08:07:19.379Z,56.02
2023-04-20T08:09:46.481Z,56.13
2023-04-20T08:12:13.708Z,54.61
2023-04-20T08:14:41.541Z,54.29
2023-04-20T08:17:09.255Z,54.33
2023-04-20T08:19:36.301Z,52.07
2023-04-20T08:22:05.815Z,51.22
2023-04-20T08:24:32.832Z,52.42
2023-04-20T08:27:01.721Z,51.93
2023-04-20T08:29:28.786Z,51.40
2023-04-20T08:31:56.418Z,50.84
2023-04-20T08:34:23.417Z,50.42
2023-04-20T08:36:51.554Z,49.84
2023-04-20T08:39:24.410Z,49.36
2023-04-20T08:41:55.895Z,50.04
2023-04-20T08:44:24.481Z,50.16
2023-04-20T08:46:52.243Z,49.62
2023-04-20T08:49:20.281Z,49.87
2023-04-20T08:51:48.461Z,49.08
2023-04-20T08:54:16.651Z,49.52
2023-04-20T08:56:46.710Z,48.93
2023-04-20T08:59:14.643Z,48.33
2023-04-20T09:01:42.659Z,48.47
2023-04-20T09:04:25.435Z,49.08
2023-04-20T09:06:55.700Z,48.70
2023-04-20T09:09:24.805Z,47.93
2023-04-20T09:12:06.948Z,47.30
2023-04-20T09:14:44.636Z,47.62
2023-04-20T09:17:14.709Z,46.25
2023-04-20T09:19:45.007Z,45.45
2023-04-20T09:22:12.439Z,45.48
2023-04-20T09:24:40.909Z,44.98
2023-04-20T09:27:18.782Z,44.20
2023-04-20T09:30:00.248Z,44.22
2023-04-20T09:32:29.263Z,45.05
2023-04-20T09:34:56.865Z,44.55
2023-04-20T09:37:25.631Z,44.49
2023-04-20T09:39:59.666Z,42.96
2023-04-20T09:42:29.018Z,42.82
2023-04-20T09:44:57.436Z,43.10
2023-04-20T09:47:27.432Z,43.26
2023-04-20T09:49:54.877Z,42.32
2023-04-20T09:52:26.345Z,41.37
2023-04-20T09:54:54.867Z,41.24
2023-04-20T09:57:23.418Z,41.28
2023-04-20T09:59:53.306Z,41.92
2023-04-20T10:02:21.510Z,41.58
2023-04-20T10:04:59.180Z,42.59
2023-04-20T10:07:28.847Z,42.28
2023-04-20T10:10:08.185Z,41.97
2023-04-20T10:12:53.219Z,42.28
2023-04-20T10:15:24.300Z,40.49
2023-04-20T10:17:52.200Z,39.11
2023-04-20T10:20:28.451Z,39.69
2023-04-20T10:23:09.666Z,38.42
2023-04-20T10:25:37.447Z,37.71
2023-04-20T10:28:08.416Z,37.40
2023-04-20T10:30:36.205Z,35.52
2023-04-20T10:33:09.923Z,35.63
2023-04-20T10:35:59.031Z,36.27
2023-04-20T10:38:34.877Z,36.51
2023-04-20T10:41:08.722Z,36.05
2023-04-20T10:43:36.250Z,34.75
2023-04-20T10:46:03.129Z,33.99
2023-04-20T10:48:31.006Z,33.49
2023-04-20T10:50:58.105Z,33.78
2023-04-20T10:53:26.221Z,33.41
2023-04-20T10:56:02.192Z,33.57
2023-04-20T10:58:29.478Z,33.84
2023-04-20T11:01:01.392Z,33.86
2023-04-20T11:03:31.391Z,34.90
2023-04-20T11:06:01.905Z,34.69
2023-04-20T11:08:43.422Z,34.80
2023-04-20T11:11:30.637Z,34.83
2023-04-20T11:14:08.673Z,33.66
2023-04-20T11:16:49.786Z,33.49
2023-04-20T11:19:25.142Z,32.73
2023-04-20T11:21:52.287Z,32.32
2023-04-20T11:24:37.515Z,32.20
2023-04-20T11:27:05.083Z,32.14
2023-04-20T11:29:39.554Z,32.07
2023-04-20T11:32:09.592Z,32.40
2023-04-20T11:34:38.502Z,32.76
2023-04-20T11:37:11.074Z,31.76
2023-04-20T11:39:39.366Z,31.92
2023-04-20T11:42:07.507Z,31.14
2023-04-20T11:44:37.281Z,31.43
2023-04-20T11:47:04.319Z,32.30
2023-04-20T11:49:31.579Z,32.34
2023-04-20T11:51:58.950Z,31.63
2023-04-20T11:54:27.369Z,31.25
2023-04-20T11:56:54.488Z,30.61
2023-04-20T11:59:22.493Z,31.23
2023-04-20T12:01:49.464Z,31.64
2023-04-20T12:04:17.338Z,31.48
2023-04-20T12:06:44.975Z,31.54
2023-04-20T12:09:13.619Z,31.59
2023-04-20T12:11:40.962Z,31.49
2023-04-20T12:14:08.753Z,31.27
2023-04-20T12:16:35.819Z,31.60
2023-04-20T12:19:04.084Z,32.26
2023-04-20T12:21:32.616Z,32.51
2023-04-20T12:23:59.993Z,32.18
2023-04-20T12:26:37.332Z,32.32
2023-04-20T12:29:05.743Z,32.50
2023-04-20T12:31:32.869Z,32.50
2023-04-20T12:34:00.387Z,32.46
2023-04-20T12:36:28.321Z,32.46
2023-04-20T12:38:56.175Z,32.84
2023-04-20T12:41:23.593Z,32.87
2023-04-20T12:43:51.708Z,32.63
2023-04-20T12:46:19.227Z,32.82
2023-04-20T12:48:46.927Z,31.76
2023-04-20T12:51:15.422Z,31.19
2023-04-20T12:53:42.802Z,30.86
2023-04-20T12:56:09.920Z,30.51
2023-04-20T12:58:37.903Z,29.92
2023-04-20T13:01:04.947Z,30.12
2023-04-20T13:03:32.772Z,30.39
2023-04-20T13:06:00.468Z,30.43
2023-04-20T13:08:27.898Z,30.41
2023-04-20T13:10:54.763Z,29.77
2023-04-20T13:13:22.215Z,29.76
2023-04-20T13:15:49.267Z,30.21
2023-04-20T13:18:16.715Z,30.23
2023-04-20T13:20:43.838Z,29.68
2023-04-20T13:23:12.060Z,29.09
2023-04-20T13:25:38.994Z,29.05
2023-04-20T13:28:07.081Z,28.83
2023-04-20T13:30:34.504Z,29.36
2023-04-20T13:33:01.808Z,29.61
2023-04-20T13:35:28.901Z,29.68
2023-04-20T13:37:56.407Z,29.32
2023-04-20T13:40:23.497Z,29.71
2023-04-20T13:42:50.925Z,29.60
2023-04-20T13:45:18.018Z,29.74
2023-04-20T13:47:46.029Z,30.21
2023-04-20T13:50:13.410Z,30.15
2023-04-20T13:52:41.439Z,29.66
2023-04-20T13:55:08.825Z,29.56
2023-04-20T13:57:37.220Z,29.54
2023-04-20T14:00:05.726Z,29.27
2023-04-20T14:02:33.453Z,28.92
2023-04-20T14:05:00.695Z,28.66
2023-04-20T14:07:27.829Z,29.12
2023-04-20T14:09:56.614Z,29.35
2023-04-20T14:12:23.999Z,29.62
2023-04-20T14:14:51.055Z,29.87
2023-04-20T14:17:18.570Z,30.06
2023-04-20T14:19:46.158Z,29.95
2023-04-20T14:22:13.313Z,29.74
2023-04-20T14:24:40.861Z,29.98
2023-04-20T14:27:08.436Z,30.18
2023-04-20T14:29:35.936Z,30.09
2023-04-20T14:32:03.380Z,30.33
2023-04-20T14:34:30.572Z,30.13
2023-04-20T14:36:57.957Z,29.61
2023-04-20T14:39:25.817Z,29.14
2023-04-20T14:41:53.223Z,28.93
2023-04-20T14:44:21.213Z,29.09
2023-04-20T14:46:48.521Z,29.01
2023-04-20T14:49:15.968Z,29.26
2023-04-20T14:51:43.113Z,29.64
2023-04-20T14:54:11.293Z,30.04
2023-04-20T14:56:38.619Z,29.99
2023-04-20T14:59:05.956Z,30.30
2023-04-20T15:01:33.360Z,30.16
2023-04-20T15:04:01.521Z,30.50
2023-04-20T15:06:29.148Z,30.48
2023-04-20T15:08:56.863Z,30.81
2023-04-20T15:11:24.398Z,30.87
2023-04-20T15:13:52.684Z,30.79
2023-04-20T15:16:20.304Z,30.71
2023-04-20T15:18:47.671Z,30.23
2023-04-20T15:21:14.819Z,30.36
2023-04-20T15:23:41.774Z,29.57
2023-04-20T15:26:09.220Z,27.56
2023-04-20T15:28:36.802Z,26.18
2023-04-20T15:31:07.503Z,25.86
2023-04-20T15:33:34.936Z,25.94
2023-04-20T15:36:02.682Z,27.10
2023-04-20T15:38:29.753Z,27.93
2023-04-20T15:40:56.909Z,28.48
2023-04-20T15:43:24.061Z,29.17
2023-04-20T15:45:51.274Z,29.61
2023-04-20T15:48:18.374Z,29.46
2023-04-20T15:50:45.727Z,29.85
2023-04-20T15:53:12.959Z,29.98
2023-04-20T15:55:40.423Z,30.15
2023-04-20T15:58:07.979Z,30.31
2023-04-20T16:00:35.139Z,30.09
2023-04-20T16:03:02.515Z,29.74
2023-04-20T16:05:30.250Z,29.86
2023-04-20T16:07:58.073Z,29.95
2023-04-20T16:10:27.556Z,29.40
2023-04-20T16:12:54.579Z,29.72
2023-04-20T16:15:21.830Z,29.89
2023-04-20T16:17:48.907Z,30.43
2023-04-20T16:20:16.645Z,30.47
2023-04-20T16:22:43.640Z,30.74
2023-04-20T16:25:12.679Z,31.04
2023-04-20T16:27:39.651Z,31.10
2023-04-20T16:30:08.676Z,31.34
2023-04-20T16:32:35.712Z,31.65
2023-04-20T16:35:03.267Z,31.65
2023-04-20T16:37:33.631Z,31.81
2023-04-20T16:40:01.484Z,32.13
2023-04-20T16:42:28.455Z,32.06
2023-04-20T16:44:55.936Z,32.29
2023-04-20T16:47:23.037Z,32.37
2023-04-20T16:49:50.449Z,32.47
2023-04-20T16:52:17.290Z,32.67
2023-04-20T16:54:44.616Z,32.82
2023-04-20T16:57:11.812Z,33.06
2023-04-20T16:59:38.972Z,33.25
2023-04-20T17:02:06.195Z,33.29
2023-04-20T17:04:33.702Z,33.51
2023-04-20T17:07:01.130Z,33.47
2023-04-20T17:09:28.293Z,33.65
2023-04-20T17:11:56.562Z,33.76
2023-04-20T17:14:24.695Z,33.83
2023-04-20T17:16:54.406Z,33.99
2023-04-20T17:19:21.650Z,33.99
2023-04-20T17:21:49.322Z,34.06
2023-04-20T17:24:16.805Z,34.01
2023-04-20T17:26:46.325Z,34.16
2023-04-20T17:29:13.816Z,34.25
2023-04-20T17:31:41.169Z,34.45
2023-04-20T17:34:09.005Z,34.78
2023-04-20T17:36:36.033Z,34.99
2023-04-20T17:39:03.761Z,35.01
2023-04-20T17:41:30.950Z,35.40
2023-04-20T17:43:58.111Z,35.48
2023-04-20T17:46:25.802Z,35.68
2023-04-20T17:48:53.305Z,35.79
2023-04-20T17:51:20.838Z,35.98
2023-04-20T17:53:48.124Z,35.98
2023-04-20T17:56:15.599Z,36.17
2023-04-20T17:58:43.046Z,36.08
2023-04-20T18:01:09.997Z,36.30
2023-04-20T18:03:37.559Z,36.19
2023-04-20T18:06:05.423Z,36.40
2023-04-20T18:08:34.537Z,36.55
2023-04-20T18:11:05.781Z,36.66
2023-04-20T18:13:33.649Z,36.67
2023-04-20T18:16:01.686Z,36.75
2023-04-20T18:18:29.084Z,36.78
2023-04-20T18:20:55.975Z,37.00
2023-04-20T18:23:23.777Z,37.08
2023-04-20T18:25:52.994Z,36.99
2023-04-20T18:28:21.666Z,37.08
2023-04-20T18:30:48.605Z,37.24
2023-04-20T18:33:16.018Z,37.35
2023-04-20T18:35:43.578Z,37.25
2023-04-20T18:38:11.498Z,37.32
2023-04-20T18:40:39.173Z,37.37
2023-04-20T18:43:06.826Z,37.37
2023-04-20T18:45:33.814Z,37.48
2023-04-20T18:48:02.149Z,37.54
2023-04-20T18:50:29.390Z,37.69
2023-04-20T18:52:57.369Z,37.71
2023-04-20T18:55:24.453Z,37.89
2023-04-20T18:57:51.852Z,37.61
2023-04-20T19:00:19.619Z,37.91
2023-04-20T19:02:47.010Z,37.95
2023-04-20T19:05:14.786Z,38.07
2023-04-20T19:07:42.905Z,38.04
2023-04-20T19:10:10.683Z,38.02
2023-04-20T19:12:38.591Z,38.30
2023-04-20T19:15:06.343Z,38.42
2023-04-20T19:17:34.372Z,38.53
2023-04-20T19:20:01.343Z,38.53
2023-04-20T19:22:28.663Z,38.64
2023-04-20T19:24:55.864Z,38.68
2023-04-20T19:27:23.101Z,38.96
2023-04-20T19:29:50.765Z,38.88
2023-04-20T19:32:18.208Z,39.23
2023-04-20T19:34:45.409Z,39.72
2023-04-20T19:37:12.686Z,39.72
2023-04-20T19:39:39.849Z,39.87
2023-04-20T19:42:07.794Z,39.89
2023-04-20T19:44:35.952Z,40.21
2023-04-20T19:47:03.862Z,40.42
2023-04-20T19:49:31.050Z,40.34
2023-04-20T19:51:58.306Z,40.65
2023-04-20T19:54:25.615Z,40.91
2023-04-20T19:56:53.026Z,40.84
2023-04-20T19:59:20.551Z,41.22
2023-04-20T20:01:50.581Z,41.16
2023-04-20T20:04:18.183Z,41.33
2023-04-20T20:06:48.678Z,41.58
2023-04-20T20:09:21.567Z,41.38
2023-04-20T20:11:50.736Z,41.42
2023-04-20T20:14:17.664Z,41.43
2023-04-20T20:16:45.496Z,41.70
2023-04-20T20:19:12.525Z,41.93
2023-04-20T20:21:39.657Z,42.28
2023-04-20T20:24:07.105Z,42.62
2023-04-20T20:26:34.281Z,42.68
2023-04-20T20:29:01.434Z,42.97
2023-04-20T20:31:28.787Z,42.83
2023-04-20T20:33:56.311Z,42.85
2023-04-20T20:36:23.915Z,42.86
2023-04-20T20:38:50.885Z,43.48
2023-04-20T20:41:21.643Z,43.68
2023-04-20T20:43:49.783Z,43.71
2023-04-20T20:46:17.161Z,43.98
2023-04-20T20:48:44.350Z,44.04
2023-04-20T20:51:11.779Z,44.03
2023-04-20T20:53:38.710Z,44.07
2023-04-20T20:56:06.681Z,44.13
2023-04-20T20:58:33.671Z,44.15
2023-04-20T21:01:01.087Z,44.26
2023-04-20T21:03:28.400Z,44.22
2023-04-20T21:05:55.913Z,44.45
2023-04-20T21:08:22.792Z,44.40
2023-04-20T21:10:50.219Z,44.59
2023-04-20T21:13:19.013Z,44.54
2023-04-20T21:15:47.048Z,44.88
2023-04-20T21:18:14.115Z,45.11
2023-04-20T21:20:41.628Z,45.36
2023-04-20T21:23:08.543Z,45.38
2023-04-20T21:25:36.003Z,45.47
2023-04-20T21:28:03.000Z,45.64
2023-04-20T21:30:30.641Z,45.69
2023-04-20T21:32:57.649Z,45.75
2023-04-20T21:35:25.286Z,45.82
2023-04-20T21:37:52.423Z,45.79
2023-04-20T21:40:20.415Z,46.17
2023-04-20T21:42:47.230Z,46.02
2023-04-20T21:45:14.668Z,46.11
2023-04-20T21:47:41.758Z,46.31
2023-04-20T21:50:09.715Z,46.37
2023-04-20T21:52:36.639Z,46.40
2023-04-20T21:55:04.483Z,46.71
2023-04-20T21:57:31.398Z,46.67
2023-04-20T21:59:58.943Z,46.56
2023-04-20T22:02:26.136Z,46.67
2023-04-20T22:04:53.815Z,46.75
2023-04-20T22:07:21.212Z,46.51
2023-04-20T22:09:48.402Z,46.80
2023-04-20T22:12:16.896Z,46.77
2023-04-20T22:14:46.830Z,47.06
2023-04-20T22:17:14.437Z,47.12
2023-04-20T22:19:42.289Z,47.27
2023-04-20T22:22:09.481Z,47.20
2023-04-20T22:24:36.624Z,47.31
2023-04-20T22:27:03.931Z,47.58
2023-04-20T22:29:31.338Z,47.66
2023-04-20T22:31:58.270Z,47.75
2023-04-20T22:34:25.511Z,47.98
2023-04-20T22:36:52.664Z,48.26
2023-04-20T22:39:20.090Z,48.28
2023-04-20T22:41:47.378Z,48.60
2023-04-20T22:44:14.591Z,48.63
2023-04-20T22:46:41.576Z,48.77
2023-04-20T22:49:08.873Z,48.94
2023-04-20T22:51:36.529Z,49.05
2023-04-20T22:54:04.336Z,49.24
2023-04-20T22:56:32.047Z,49.30
2023-04-20T22:58:59.571Z,49.62
2023-04-20T23:01:26.683Z,49.69
2023-04-20T23:03:54.070Z,49.82
2023-04-20T23:06:22.165Z,50.10
2023-04-20T23:08:49.677Z,50.33
2023-04-20T23:11:16.781Z,50.44
2023-04-20T23:13:44.620Z,50.64
2023-04-20T23:16:11.664Z,50.77
2023-04-20T23:18:39.084Z,50.84
2023-04-20T23:21:06.338Z,50.96
2023-04-20T23:23:33.653Z,50.93
2023-04-20T23:26:00.546Z,51.05
2023-04-20T23:28:28.113Z,51.25
2023-04-20T23:30:54.940Z,51.39
2023-04-20T23:33:22.433Z,51.62
2023-04-20T23:35:49.264Z,51.81
2023-04-20T23:38:18.430Z,51.98
2023-04-20T23:40:45.226Z,52.19
2023-04-20T23:43:12.776Z,52.37
2023-04-20T23:45:39.904Z,52.51
2023-04-20T23:48:07.373Z,52.76
2023-04-20T23:50:34.676Z,52.73
2023-04-20T23:53:02.400Z,52.88
2023-04-20T23:55:29.484Z,52.55
2023-04-20T23:57:58.580Z,52.71
